createdAt,value
2023-03-24T00:00:28.319Z,96916.78
2023-03-24T00:02:56.407Z,96923.91
2023-03-24T00:05:23.388Z,96928.66
2023-03-24T00:07:54.483Z,96921.56
2023-03-24T00:10:22.635Z,96925.47
2023-03-24T00:12:49.406Z,96927.13
2023-03-24T00:15:19.078Z,96927.91
2023-03-24T00:17:47.054Z,96924.00
2023-03-24T00:20:15.285Z,96916.84
2023-03-24T00:22:42.514Z,96918.81
2023-03-24T00:25:12.131Z,96919.22
2023-03-24T00:27:38.737Z,96918.44
2023-03-24T00:30:09.458Z,96921.63
2023-03-24T00:32:38.813Z,96914.78
2023-03-24T00:35:06.364Z,96921.53
2023-03-24T00:37:32.823Z,96925.09
2023-03-24T00:39:59.639Z,96916.78
2023-03-24T00:42:26.112Z,96912.00
2023-03-24T00:44:53.900Z,96920.34
2023-03-24T00:47:26.275Z,96911.16
2023-03-24T00:49:54.195Z,96910.00
2023-03-24T00:52:22.283Z,96898.16
2023-03-24T00:54:50.524Z,96904.03
2023-03-24T00:57:23.397Z,96904.03
2023-03-24T00:59:49.961Z,96905.22
2023-03-24T01:02:22.313Z,96905.63
2023-03-24T01:04:56.318Z,96898.19
2023-03-24T01:07:26.051Z,96906.47
2023-03-24T01:09:57.364Z,96896.13
2023-03-24T01:12:28.894Z,96889.06
2023-03-24T01:14:55.695Z,96901.78
2023-03-24T01:17:25.607Z,96893.88
2023-03-24T01:19:52.930Z,96891.44
2023-03-24T01:22:20.540Z,96892.25
2023-03-24T01:24:47.920Z,96891.88
2023-03-24T01:27:14.575Z,96884.41
2023-03-24T01:29:41.437Z,96892.34
2023-03-24T01:32:07.992Z,96885.22
2023-03-24T01:34:34.616Z,96878.09
2023-03-24T01:37:01.148Z,96874.94
2023-03-24T01:39:27.636Z,96869.00
2023-03-24T01:41:54.163Z,96871.38
2023-03-24T01:44:38.605Z,96868.63
2023-03-24T01:47:08.404Z,96866.66
2023-03-24T01:49:41.607Z,96853.56
2023-03-24T01:52:11.686Z,96863.78
2023-03-24T01:54:47.238Z,96851.16
2023-03-24T01:57:18.045Z,96852.75
2023-03-24T01:59:46.704Z,96849.22
2023-03-24T02:02:13.842Z,96848.44
2023-03-24T02:04:45.430Z,96853.25
2023-03-24T02:07:21.996Z,96833.91
2023-03-24T02:09:48.527Z,96830.34
2023-03-24T02:12:16.234Z,96818.81
2023-03-24T02:14:42.766Z,96827.16
2023-03-24T02:17:15.090Z,96828.38
2023-03-24T02:19:47.841Z,96815.72
2023-03-24T02:22:48.373Z,96818.91
2023-03-24T02:25:41.583Z,96820.50
2023-03-24T02:28:17.500Z,96820.50
2023-03-24T02:31:29.145Z,96819.72
2023-03-24T02:34:11.199Z,96811.44
2023-03-24T02:37:14.016Z,96810.25
2023-03-24T02:39:48.940Z,96801.22
2023-03-24T02:42:41.563Z,96803.97
2023-03-24T02:45:26.293Z,96802.00
2023-03-24T02:48:03.155Z,96800.06
2023-03-24T02:50:31.240Z,96786.97
2023-03-24T02:53:20.930Z,96792.16
2023-03-24T02:55:53.067Z,96794.56
2023-03-24T02:58:27.425Z,96790.53
2023-03-24T03:00:59.368Z,96797.28
2023-03-24T03:03:34.468Z,96798.47
2023-03-24T03:06:07.118Z,96796.84
2023-03-24T03:08:34.033Z,96793.69
2023-03-24T03:11:01.538Z,96793.28
2023-03-24T03:13:32.806Z,96798.41
2023-03-24T03:16:02.865Z,96792.94
2023-03-24T03:18:32.708Z,96794.09
2023-03-24T03:21:02.565Z,96784.59
2023-03-24T03:23:40.498Z,96781.44
2023-03-24T03:26:09.835Z,96767.19
2023-03-24T03:28:38.151Z,96755.31
2023-03-24T03:31:08.385Z,96756.53
2023-03-24T03:33:37.372Z,96739.88
2023-03-24T03:36:08.208Z,96739.88
2023-03-24T03:38:58.345Z,96731.59
2023-03-24T03:41:24.828Z,96733.22
2023-03-24T03:43:51.321Z,96726.06
2023-03-24T03:46:18.447Z,96717.75
2023-03-24T03:48:45.116Z,96711.44
2023-03-24T03:51:14.214Z,96707.13
2023-03-24T03:53:58.188Z,96694.03
2023-03-24T03:56:26.845Z,96690.47
2023-03-24T03:58:53.449Z,96692.47
2023-03-24T04:01:21.276Z,96689.69
2023-03-24T04:04:08.970Z,96683.75
2023-03-24T04:06:40.963Z,96686.09
2023-03-24T04:09:34.540Z,96672.66
2023-03-24T04:12:12.989Z,96681.38
2023-03-24T04:15:09.981Z,96674.22
2023-03-24T04:17:56.600Z,96682.16
2023-03-24T04:20:26.832Z,96675.44
2023-03-24T04:23:14.743Z,96682.19
2023-03-24T04:26:06.130Z,96682.19
2023-03-24T04:28:40.115Z,96682.56
2023-03-24T04:31:17.796Z,96677.03
2023-03-24T04:33:58.317Z,96674.25
2023-03-24T04:36:44.250Z,96677.06
2023-03-24T04:39:17.047Z,96675.47
2023-03-24T04:41:43.650Z,96681.00
2023-03-24T04:44:11.031Z,96666.38
2023-03-24T04:46:37.839Z,96672.69
2023-03-24T04:49:04.872Z,96670.34
2023-03-24T04:51:31.400Z,96675.94
2023-03-24T04:53:57.875Z,96665.59
2023-03-24T04:56:27.434Z,96660.84
2023-03-24T04:58:54.009Z,96658.91
2023-03-24T05:01:21.493Z,96667.22
2023-03-24T05:03:48.902Z,96660.47
2023-03-24T05:06:15.443Z,96662.06
2023-03-24T05:08:41.971Z,96665.22
2023-03-24T05:11:08.454Z,96666.81
2023-03-24T05:13:34.946Z,96665.22
2023-03-24T05:16:01.522Z,96656.13
2023-03-24T05:18:28.056Z,96648.59
2023-03-24T05:20:54.663Z,96640.28
2023-03-24T05:23:21.165Z,96656.13
2023-03-24T05:25:47.733Z,96644.66
2023-03-24T05:28:14.191Z,96654.53
2023-03-24T05:30:40.922Z,96651.38
2023-03-24T05:33:07.451Z,96651.78
2023-03-24T05:35:34.004Z,96659.28
2023-03-24T05:38:00.647Z,96660.09
2023-03-24T05:40:27.134Z,96656.91
2023-03-24T05:42:53.616Z,96664.06
2023-03-24T05:45:20.206Z,96660.88
2023-03-24T05:47:47.269Z,96656.50
2023-03-24T05:50:13.761Z,96677.50
2023-03-24T05:52:41.346Z,96677.50
2023-03-24T05:55:08.082Z,96692.56
2023-03-24T05:57:34.754Z,96687.00
2023-03-24T06:00:01.399Z,96690.59
2023-03-24T06:02:27.925Z,96732.66
2023-03-24T06:04:57.510Z,96734.59
2023-03-24T06:07:26.634Z,96735.34
2023-03-24T06:09:53.198Z,96734.56
2023-03-24T06:12:21.602Z,96726.59
2023-03-24T06:14:48.334Z,96748.88
2023-03-24T06:17:15.198Z,96736.16
2023-03-24T06:19:48.687Z,96732.19
2023-03-24T06:22:18.322Z,96720.75
2023-03-24T06:24:44.826Z,96724.72
2023-03-24T06:27:11.765Z,96719.56
2023-03-24T06:29:38.468Z,96714.78
2023-03-24T06:32:05.658Z,96712.44
2023-03-24T06:34:32.224Z,96708.09
2023-03-24T06:36:58.716Z,96702.94
2023-03-24T06:39:26.281Z,96691.38
2023-03-24T06:41:52.760Z,96694.94
2023-03-24T06:44:19.241Z,96709.25
2023-03-24T06:46:47.297Z,96710.84
2023-03-24T06:49:13.889Z,96711.25
2023-03-24T06:51:40.398Z,96714.41
2023-03-24T06:54:07.204Z,96715.63
2023-03-24T06:56:34.809Z,96724.31
2023-03-24T06:59:01.399Z,96708.06
2023-03-24T07:01:27.901Z,96728.69
2023-03-24T07:03:54.536Z,96718.00
2023-03-24T07:06:22.873Z,96729.56
2023-03-24T07:08:49.911Z,96727.59
2023-03-24T07:11:17.045Z,96718.88
2023-03-24T07:13:43.524Z,96710.97
2023-03-24T07:16:10.160Z,96706.19
2023-03-24T07:18:36.996Z,96718.91
2023-03-24T07:21:03.832Z,96735.94
2023-03-24T07:23:31.240Z,96734.72
2023-03-24T07:25:57.802Z,96743.47
2023-03-24T07:28:24.273Z,96745.06
2023-03-24T07:30:52.151Z,96758.94
2023-03-24T07:33:20.833Z,96762.50
2023-03-24T07:35:47.539Z,96754.16
2023-03-24T07:38:14.504Z,96752.97
2023-03-24T07:40:40.975Z,96740.31
2023-03-24T07:43:14.236Z,96743.06
2023-03-24T07:45:40.839Z,96749.38
2023-03-24T07:48:07.664Z,96751.34
2023-03-24T07:50:34.439Z,96760.84
2023-03-24T07:53:01.195Z,96749.72
2023-03-24T07:55:28.305Z,96734.56
2023-03-24T07:57:57.955Z,96753.13
2023-03-24T08:00:32.745Z,96755.91
2023-03-24T08:03:00.273Z,96764.59
2023-03-24T08:05:29.585Z,96771.09
2023-03-24T08:07:58.057Z,96771.09
2023-03-24T08:10:27.011Z,96770.22
2023-03-24T08:12:53.557Z,96759.59
2023-03-24T08:15:20.308Z,96770.38
2023-03-24T08:17:48.153Z,96765.66
2023-03-24T08:20:15.189Z,96770.09
2023-03-24T08:22:42.691Z,96780.78
2023-03-24T08:25:14.101Z,96790.72
2023-03-24T08:27:43.361Z,96797.13
2023-03-24T08:30:11.439Z,96796.66
2023-03-24T08:32:38.113Z,96798.94
2023-03-24T08:35:05.134Z,96796.94
2023-03-24T08:37:31.708Z,96809.09
2023-03-24T08:39:58.559Z,96821.41
2023-03-24T08:42:25.769Z,96812.28
2023-03-24T08:44:52.462Z,96828.16
2023-03-24T08:47:18.942Z,96825.38
2023-03-24T08:49:45.519Z,96819.41
2023-03-24T08:52:11.979Z,96822.63
2023-03-24T08:54:38.557Z,96825.03
2023-03-24T08:57:05.053Z,96818.69
2023-03-24T08:59:31.569Z,96800.09
2023-03-24T09:01:58.248Z,96796.44
2023-03-24T09:04:24.878Z,96808.44
2023-03-24T09:06:53.597Z,96817.13
2023-03-24T09:09:20.225Z,96821.91
2023-03-24T09:11:48.401Z,96821.91
2023-03-24T09:14:14.892Z,96813.97
2023-03-24T09:16:43.821Z,96798.97
2023-03-24T09:19:10.354Z,96822.00
2023-03-24T09:21:38.372Z,96823.56
2023-03-24T09:24:05.160Z,96821.59
2023-03-24T09:26:33.875Z,96811.69
2023-03-24T09:29:00.392Z,96818.09
2023-03-24T09:31:27.010Z,96815.75
2023-03-24T09:33:53.531Z,96813.31
2023-03-24T09:36:20.046Z,96814.09
2023-03-24T09:38:49.648Z,96813.28
2023-03-24T09:41:29.469Z,96821.13
2023-03-24T09:44:31.711Z,96812.44
2023-03-24T09:47:16.592Z,96824.81
2023-03-24T09:49:43.062Z,96826.50
2023-03-24T09:52:15.569Z,96832.03
2023-03-24T09:54:46.836Z,96820.94
2023-03-24T09:57:17.865Z,96818.16
2023-03-24T09:59:44.382Z,96830.06
2023-03-24T10:02:12.845Z,96823.72
2023-03-24T10:04:39.373Z,96834.81
2023-03-24T10:07:33.269Z,96822.88
2023-03-24T10:10:00.807Z,96817.72
2023-03-24T10:12:35.785Z,96821.72
2023-03-24T10:18:32.721Z,96816.63
2023-03-24T10:21:01.272Z,96821.78
2023-03-24T10:23:39.236Z,96822.97
2023-03-24T10:26:16.358Z,96826.53
2023-03-24T10:28:52.826Z,96846.78
2023-03-24T10:31:21.500Z,96825.34
2023-03-24T10:33:48.001Z,96839.63
2023-03-24T10:36:17.909Z,96845.59
2023-03-24T10:38:44.856Z,96834.50
2023-03-24T10:41:19.890Z,96842.44
2023-03-24T10:43:46.689Z,96853.13
2023-03-24T10:46:15.226Z,96847.56
2023-03-24T10:48:49.805Z,96845.53
2023-03-24T10:51:20.606Z,96854.22
2023-03-24T10:53:50.727Z,96863.00
2023-03-24T10:56:19.957Z,96851.84
2023-03-24T10:58:46.494Z,96848.03
2023-03-24T11:01:27.111Z,96846.22
2023-03-24T11:04:03.466Z,96857.56
2023-03-24T11:06:29.966Z,96861.22
2023-03-24T11:09:19.117Z,96841.81
2023-03-24T11:11:46.161Z,96873.66
2023-03-24T11:14:25.337Z,96868.13
2023-03-24T11:16:52.809Z,96874.91
2023-03-24T11:19:23.560Z,96866.53
2023-03-24T11:21:51.712Z,96873.00
2023-03-24T11:24:19.544Z,96878.97
2023-03-24T11:27:06.232Z,96874.59
2023-03-24T11:29:33.919Z,96871.00
2023-03-24T11:32:05.519Z,96867.88
2023-03-24T11:34:38.732Z,96869.06
2023-03-24T11:37:06.803Z,96883.34
2023-03-24T11:39:34.229Z,96867.06
2023-03-24T11:42:12.783Z,96866.66
2023-03-24T11:44:39.118Z,96867.06
2023-03-24T11:47:08.568Z,96876.97
2023-03-24T11:49:39.268Z,96893.69
2023-03-24T11:52:06.576Z,96875.81
2023-03-24T11:54:35.344Z,96873.34
2023-03-24T11:57:04.776Z,96870.38
2023-03-24T11:59:49.817Z,96847.25
2023-03-24T12:02:51.838Z,96860.44
2023-03-24T12:05:38.012Z,96854.84
2023-03-24T12:08:25.886Z,96866.47
2023-03-24T12:11:19.353Z,96872.06
2023-03-24T12:13:49.122Z,96882.50
2023-03-24T12:16:40.597Z,96887.69
2023-03-24T12:19:30.885Z,96902.81
2023-03-24T12:22:21.161Z,96889.69
2023-03-24T12:25:08.964Z,96889.28
2023-03-24T12:27:54.046Z,96890.06
2023-03-24T12:31:27.085Z,96905.59
2023-03-24T12:34:04.061Z,96889.91
2023-03-24T12:37:01.340Z,96873.47
2023-03-24T12:39:29.474Z,96863.53
2023-03-24T12:42:05.787Z,96867.06
2023-03-24T12:44:56.122Z,96874.13
2023-03-24T12:47:49.977Z,96862.16
2023-03-24T12:50:37.669Z,96862.47
2023-03-24T12:53:26.156Z,96820.81
2023-03-24T12:55:55.951Z,96832.47
2023-03-24T12:58:26.789Z,96830.72
2023-03-24T13:01:09.623Z,96822.25
2023-03-24T13:03:44.110Z,96817.16
2023-03-24T13:06:17.647Z,96824.94
2023-03-24T13:08:49.330Z,96844.53
2023-03-24T13:11:30.041Z,96846.31
2023-03-24T13:13:59.029Z,96832.78
2023-03-24T13:16:27.987Z,96855.75
2023-03-24T13:18:59.848Z,96839.13
2023-03-24T13:21:27.817Z,96828.50
2023-03-24T13:23:56.618Z,96841.41
2023-03-24T13:26:51.125Z,96839.09
2023-03-24T13:29:48.472Z,96843.56
2023-03-24T13:32:24.650Z,96851.75
2023-03-24T13:35:35.553Z,96839.63
2023-03-24T13:38:38.433Z,96835.00
2023-03-24T13:41:05.874Z,96830.78
2023-03-24T13:43:32.466Z,96814.50
2023-03-24T13:46:06.030Z,96829.38
2023-03-24T13:48:41.759Z,96834.84
2023-03-24T13:51:30.820Z,96846.44
2023-03-24T13:53:59.652Z,96838.50
2023-03-24T13:56:36.052Z,96841.16
2023-03-24T13:59:02.385Z,96864.69
2023-03-24T14:01:32.640Z,96864.34
2023-03-24T14:04:20.920Z,96860.13
2023-03-24T14:06:54.495Z,96862.50
2023-03-24T14:09:21.534Z,96854.53
2023-03-24T14:12:03.578Z,96867.66
2023-03-24T14:14:31.186Z,96861.69
2023-03-24T14:17:14.616Z,96856.88
2023-03-24T14:19:41.866Z,96859.22
2023-03-24T14:22:15.261Z,96858.75
2023-03-24T14:24:43.712Z,96856.66
2023-03-24T14:27:29.892Z,96855.97
2023-03-24T14:30:00.191Z,96854.69
2023-03-24T14:32:26.678Z,96854.78
2023-03-24T14:34:58.669Z,96841.69
2023-03-24T14:37:25.847Z,96847.22
2023-03-24T14:39:52.399Z,96834.78
2023-03-24T14:42:34.264Z,96834.53
2023-03-24T14:45:05.646Z,96834.72
2023-03-24T14:47:37.399Z,96833.00
2023-03-24T14:50:20.635Z,96836.38
2023-03-24T14:52:52.708Z,96833.75
2023-03-24T14:55:19.775Z,96840.63
2023-03-24T14:58:04.283Z,96839.09
2023-03-24T15:00:51.818Z,96844.66
2023-03-24T15:03:39.198Z,96846.66
2023-03-24T15:06:12.639Z,96844.28
2023-03-24T15:08:39.171Z,96839.91
2023-03-24T15:11:06.344Z,96860.19
2023-03-24T15:13:55.119Z,96837.09
2023-03-24T15:16:29.358Z,96837.09
2023-03-24T15:19:02.478Z,96847.47
2023-03-24T15:21:39.740Z,96845.47
2023-03-24T15:24:21.459Z,96834.31
2023-03-24T15:27:17.142Z,96829.09
2023-03-24T15:29:44.055Z,96825.88
2023-03-24T15:32:21.057Z,96824.25
2023-03-24T15:34:52.243Z,96829.88
2023-03-24T15:37:32.930Z,96824.31
2023-03-24T15:40:05.582Z,96827.16
2023-03-24T15:42:42.155Z,96834.78
2023-03-24T15:45:12.200Z,96827.22
2023-03-24T15:47:39.845Z,96840.78
2023-03-24T15:50:26.808Z,96837.63
2023-03-24T15:53:07.407Z,96850.72
2023-03-24T15:55:34.952Z,96838.03
2023-03-24T15:58:02.796Z,96850.75
2023-03-24T16:00:31.647Z,96856.31
2023-03-24T16:03:00.860Z,96886.94
2023-03-24T16:05:29.102Z,96931.97
2023-03-24T16:08:04.145Z,96940.00
2023-03-24T16:10:42.961Z,96932.25
2023-03-24T16:13:19.600Z,96921.53
2023-03-24T16:15:59.140Z,96931.00
2023-03-24T16:18:36.442Z,96935.91
2023-03-24T16:21:09.262Z,96930.09
2023-03-24T16:23:35.739Z,96939.38
2023-03-24T16:26:02.238Z,96946.38
2023-03-24T16:28:28.739Z,96955.47
2023-03-24T16:31:02.384Z,96954.66
2023-03-24T16:33:30.346Z,96957.22
2023-03-24T16:35:57.021Z,96939.06
2023-03-24T16:38:23.720Z,96957.59
2023-03-24T16:40:54.642Z,96944.44
2023-03-24T16:43:21.241Z,96942.91
2023-03-24T16:45:48.453Z,96945.78
2023-03-24T16:48:15.598Z,96927.78
2023-03-24T16:50:43.256Z,96932.00
2023-03-24T16:53:09.766Z,96933.75
2023-03-24T16:55:37.002Z,96928.19
2023-03-24T16:58:03.960Z,96929.84
2023-03-24T17:00:30.572Z,96930.53
2023-03-24T17:02:59.792Z,96932.94
2023-03-24T17:05:28.842Z,96941.25
2023-03-24T17:07:55.908Z,96938.59
2023-03-24T17:10:23.150Z,96949.22
2023-03-24T17:12:50.192Z,96958.38
2023-03-24T17:15:27.310Z,96952.75
2023-03-24T17:17:54.099Z,96946.41
2023-03-24T17:20:21.020Z,96952.22
2023-03-24T17:22:48.578Z,96960.34
2023-03-24T17:25:18.447Z,96953.81
2023-03-24T17:27:45.098Z,96958.53
2023-03-24T17:30:22.364Z,96967.22
2023-03-24T17:32:49.127Z,96967.91
2023-03-24T17:35:17.841Z,96955.16
2023-03-24T17:37:44.409Z,96968.19
2023-03-24T17:40:12.117Z,96964.94
2023-03-24T17:42:39.436Z,96981.53
2023-03-24T17:45:06.852Z,96985.41
2023-03-24T17:47:33.352Z,96981.63
2023-03-24T17:49:59.916Z,96975.69
2023-03-24T17:52:26.592Z,96988.59
2023-03-24T17:54:53.063Z,96993.91
2023-03-24T17:57:19.522Z,97005.69
2023-03-24T17:59:46.229Z,97000.25
2023-03-24T18:02:13.065Z,97014.31
2023-03-24T18:04:39.800Z,97021.69
2023-03-24T18:07:06.265Z,97008.84
2023-03-24T18:09:32.800Z,97023.09
2023-03-24T18:11:59.270Z,97025.25
2023-03-24T18:14:25.921Z,97021.63
2023-03-24T18:16:52.497Z,97027.56
2023-03-24T18:19:19.002Z,97016.59
2023-03-24T18:21:45.730Z,97006.22
2023-03-24T18:24:12.336Z,97013.34
2023-03-24T18:26:38.854Z,97001.19
2023-03-24T18:29:05.800Z,97001.34
2023-03-24T18:31:32.775Z,96997.69
2023-03-24T18:34:00.428Z,96992.16
2023-03-24T18:36:27.022Z,96996.47
2023-03-24T18:39:06.912Z,96999.16
2023-03-24T18:41:36.803Z,96997.06
2023-03-24T18:44:04.537Z,97002.66
2023-03-24T18:46:31.382Z,97008.13
2023-03-24T18:48:58.010Z,96999.34
2023-03-24T18:51:28.136Z,97006.41
2023-03-24T18:53:54.747Z,96999.72
2023-03-24T18:56:22.329Z,96990.13
2023-03-24T18:58:50.944Z,96990.94
2023-03-24T19:01:22.245Z,96995.41
2023-03-24T19:03:49.234Z,96986.25
2023-03-24T19:06:15.934Z,96996.44
2023-03-24T19:08:47.426Z,96987.41
2023-03-24T19:11:14.482Z,96987.06
2023-03-24T19:13:41.561Z,96989.13
2023-03-24T19:16:08.981Z,96980.41
2023-03-24T19:18:36.341Z,96981.72
2023-03-24T19:21:02.837Z,96976.13
2023-03-24T19:23:29.378Z,96973.50
2023-03-24T19:25:56.206Z,96966.72
2023-03-24T19:28:23.867Z,96968.50
2023-03-24T19:30:50.767Z,96975.19
2023-03-24T19:33:17.298Z,96966.34
2023-03-24T19:35:50.195Z,96961.56
2023-03-24T19:38:17.511Z,96968.69
2023-03-24T19:40:44.044Z,96964.53
2023-03-24T19:43:10.949Z,96965.03
2023-03-24T19:45:42.438Z,96954.00
2023-03-24T19:48:09.755Z,96964.47
2023-03-24T19:50:36.727Z,96961.94
2023-03-24T19:53:03.444Z,96967.72
2023-03-24T19:55:29.941Z,96966.47
2023-03-24T19:57:56.435Z,96968.03
2023-03-24T20:00:23.012Z,96978.63
2023-03-24T20:02:49.562Z,96980.91
2023-03-24T20:05:16.425Z,96982.78
2023-03-24T20:07:42.922Z,96975.31
2023-03-24T20:10:09.883Z,96975.13
2023-03-24T20:12:36.526Z,96973.19
2023-03-24T20:15:03.074Z,96982.72
2023-03-24T20:17:29.652Z,96971.75
2023-03-24T20:19:56.481Z,96973.00
2023-03-24T20:22:23.056Z,96967.41
2023-03-24T20:24:49.576Z,96979.94
2023-03-24T20:27:16.134Z,96993.34
2023-03-24T20:29:42.634Z,96987.38
2023-03-24T20:32:12.158Z,96994.16
2023-03-24T20:34:38.745Z,97001.16
2023-03-24T20:37:05.937Z,97000.91
2023-03-24T20:39:33.141Z,96994.94
2023-03-24T20:41:59.686Z,96986.03
2023-03-24T20:44:26.256Z,96995.91
2023-03-24T20:46:57.184Z,96985.88
2023-03-24T20:49:24.284Z,96984.34
2023-03-24T20:51:51.567Z,96972.47
2023-03-24T20:54:18.066Z,96969.59
2023-03-24T20:56:44.641Z,96966.41
2023-03-24T20:59:11.277Z,96972.72
2023-03-24T21:01:37.929Z,96969.25
2023-03-24T21:04:09.134Z,96960.75
2023-03-24T21:06:38.107Z,96961.25
2023-03-24T21:09:04.963Z,96957.72
2023-03-24T21:11:31.538Z,96960.97
2023-03-24T21:13:58.474Z,96942.81
2023-03-24T21:16:26.918Z,96930.00
2023-03-24T21:18:58.811Z,96927.81
2023-03-24T21:21:25.417Z,96933.75
2023-03-24T21:23:52.938Z,96932.91
2023-03-24T21:26:19.491Z,96922.53
2023-03-24T21:28:46.120Z,96918.00
2023-03-24T21:31:20.849Z,96917.03
2023-03-24T21:33:47.547Z,96911.66
2023-03-24T21:36:14.079Z,96918.53
2023-03-24T21:38:40.576Z,96914.19
2023-03-24T21:41:07.120Z,96917.19
2023-03-24T21:43:35.077Z,96912.53
2023-03-24T21:46:03.525Z,96921.84
2023-03-24T21:48:30.551Z,96912.78
2023-03-24T21:50:57.437Z,96915.09
2023-03-24T21:53:26.035Z,96908.41
2023-03-24T21:55:53.885Z,96905.16
2023-03-24T21:58:20.462Z,96906.97
2023-03-24T22:00:47.293Z,96893.91
2023-03-24T22:03:13.897Z,96892.00
2023-03-24T22:05:40.620Z,96888.97
2023-03-24T22:08:07.172Z,96889.41
2023-03-24T22:10:42.420Z,96879.09
2023-03-24T22:13:09.710Z,96878.44
2023-03-24T22:15:36.843Z,96886.34
2023-03-24T22:18:03.544Z,96881.91
2023-03-24T22:20:31.914Z,96892.88
2023-03-24T22:22:58.482Z,96881.56
2023-03-24T22:25:25.438Z,96872.47
2023-03-24T22:27:55.251Z,96872.84
2023-03-24T22:30:21.758Z,96884.81
2023-03-24T22:32:48.529Z,96871.88
2023-03-24T22:35:15.539Z,96874.63
2023-03-24T22:37:42.037Z,96859.56
2023-03-24T22:40:09.141Z,96865.34
2023-03-24T22:42:35.752Z,96864.09
2023-03-24T22:45:02.287Z,96862.88
2023-03-24T22:47:29.135Z,96863.97
2023-03-24T22:49:55.690Z,96861.63
2023-03-24T22:52:22.225Z,96858.75
2023-03-24T22:54:48.783Z,96863.31
2023-03-24T22:57:17.579Z,96869.34
2023-03-24T22:59:44.136Z,96863.56
2023-03-24T23:02:10.738Z,96870.13
2023-03-24T23:04:37.583Z,96870.50
2023-03-24T23:07:06.375Z,96858.97
2023-03-24T23:09:33.250Z,96857.66
2023-03-24T23:11:59.703Z,96855.91
2023-03-24T23:14:26.431Z,96862.72
2023-03-24T23:16:54.283Z,96869.66
2023-03-24T23:19:20.791Z,96844.31
2023-03-24T23:21:47.282Z,96849.25
2023-03-24T23:24:13.759Z,96852.53
2023-03-24T23:26:40.328Z,96859.03
2023-03-24T23:29:06.811Z,96847.66
2023-03-24T23:31:33.413Z,96833.22
2023-03-24T23:34:00.222Z,96838.88
2023-03-24T23:36:28.126Z,96837.50
2023-03-24T23:38:54.729Z,96835.72
2023-03-24T23:41:21.249Z,96831.00
2023-03-24T23:43:49.177Z,96839.91
2023-03-24T23:46:15.927Z,96837.81
2023-03-24T23:48:42.477Z,96834.63
2023-03-24T23:51:08.980Z,96836.66
2023-03-24T23:53:35.765Z,96841.44
2023-03-24T23:56:06.709Z,96834.03
2023-03-24T23:58:34.863Z,96837.41
